Fort Worth Nas Jrb/Carswell field
KNFW : now visible

Airfield :











YOU CAN JOIN US ON...

 
LOGIN :

Register | Disclaimer

   EN    FR    IT 

 









Legend :    VFR   Marginal VFR   IFR   Intensive IFR   Very Intensive IFR
Visi :
Ceiling :
>= 8 km
>= 3000ft
5 to 8 km
1000 to 3000 ft
1500m to 5 km
500 to 1000 ft
800 to 1500m
200 to 500 ft
< 800m
< 200 ft
Symbols :   Thunderstorms  Fog  Heavy snow  Heavy precipitations  Wind > 20 kt






- Airport Elevation : 650 ft


KNFW - Fort Worth Nas Jrb/Carswell field

CURRENT METAR :
  • 282252Z 02010KT 10SM OVC180 08/M09 A3037 RMK AO2 SLP265 T00781089 $

EXPIRED METARs :
  • 282152Z 02010KT 10SM OVC180 08/M09 A3037 RMK AO2 SLP265 T00831089 $
  • 282052Z 03014KT 10SM FEW070 BKN140 OVC200 08/M09 A3037 RMK AO2 SLP264 T00831094 56010 $
  • 281952Z 01014G19KT 10SM FEW070 BKN140 OVC200 08/M08 A3037 RMK AO2 SLP266 T00781083 $
  • 281852Z 36011KT 10SM FEW070 BKN140 OVC200 07/M08 A3039 RMK AO2 SLP270 T00671083 $

TAF TAF KNFW
Valid from the 28 at 23:00 until the 29 at 23:00 UTC


2823/2923 VRB06KT 9999 OVC180 651809 652703 QNH3032INS
FM291200 VRB06KT 9000 -RA BR OVC060 660909 661809 662703 QNH3023INS
BECMG 2920/2921 VRB06KT 6000 RA BR BKN020 OVC060CB 660909 661809 662703 QNH3021INS AUTOMATED SENSOR METWATCH 2905 TIL 2912 TX08/2823Z TN05/2913Z FN20070
KZFW FIR / North America



MET'MAP, your aeronautical weather chart ! - Copyright ORBIFLY December 2007 - Disclaimer

ORBIFLY MET'MAP TEAM :

Programming & Development : Alexandra Zaïnal
Original concept : Baudouin d'Aumeries
Technical & hardware support : Manuel Goepfert
Assistance : Marc-Olivier Méhu




SOURCES & CREDITS :

   NOAA       Earth
Advisory